Bethpage, New York
Current Conditions -  °F | °C
As of 2:53 PM on Sunday 21 Dec 2014 (Local Time) from KFRG Reporting Station
Overcast Overcast  
Wind Chill: 30°   Ceiling: 1300
Heat Index: 36°   Visibility: 10mi
Dew Point: 29°   Wind: 7mph
Humidity: 76%   Direction: 340°NNW
Pressure: 30.28"   Gusts: NA
Location:  40.74°N, 73.48°W
Report Text: KFRG 211953Z 34006KT 10SM OVC013 02/M02 A3028 RMK AO2 SLP253 T00221017
Loading
Personal Weather Stations






























Interactive Weather Map New forecast layout! Learn more

10-Day Weather Forecast

Advertisements
Track Severe Weather on mobile